Flight Track Log - Related Links

Times and Time Zones

All times are in EST time to prevent confusion due to time zone crossing. See the SWA2054 flight status page for this flight to view local times or setup timezone preferences in your user account.

Time Position Orientation Groundspeed Altitude Reporting Facility
EST Latitude Longitude Course Direction KTS MPH feet Rate Location/Type
Mon 02:31:44 PM 40.7533 -112.0372 246° West 210 242 6,800  Level Salt Lake Center
Mon 02:32:03 PM 40.7572 -112.0617 282° West 222 255 7,600 3,382 Climbing Salt Lake Center
Mon 02:32:39 PM 40.7836 -112.1033 310° West 234 269 9,900 3,581 Climbing Salt Lake Center
Mon 02:33:05 PM 40.8017 -112.1256 317° Northwest 237 273 11,300 3,136 Climbing Salt Lake Center
Mon 02:34:07 PM 40.8656 -112.1319 356° North 282 325 14,500 2,613 Climbing Salt Lake Center
Mon 02:35:09 PM 40.8814 -112.0097 80° East 358 412 16,700 2,129 Climbing Salt Lake Center
Mon 02:36:11 PM 40.8856 -111.8706 88° East 396 456 18,900 2,323 Climbing Salt Lake Center
Mon 02:37:13 PM 40.8736 -111.6864 95° East 433 498 21,500 2,468 Climbing Salt Lake Center
Mon 02:38:15 PM 40.8633 -111.5250 95° East 445 512 24,000 1,984 Climbing Salt Lake Center
Mon 02:39:17 PM 40.8533 -111.3539 94° East 470 541 25,600 1,452 Climbing Salt Lake Center
Mon 02:40:19 PM 40.8417 -111.1722 95° East 495 570 27,000 1,500 Climbing Salt Lake Center
Mon 02:41:21 PM 40.8292 -110.9811 95° East 517 595 28,700 1,935 Climbing Salt Lake Center
Mon 02:42:23 PM 40.8114 -110.7469 96° East 534 615 31,000 1,839 Climbing Salt Lake Center
Mon 02:43:25 PM 40.7975 -110.5508 95° East 542 624 32,500 1,742 Climbing Salt Lake Center
Mon 02:44:27 PM 40.7844 -110.3639 95° East 539 620 34,600 1,839 Climbing Salt Lake Center
Mon 02:45:29 PM 40.7675 -110.1492 96° East 532 612 36,300 1,597 Climbing Salt Lake Center
Mon 02:46:31 PM 40.7525 -109.9639 96° East 531 611 37,900 1,306 Climbing Salt Lake Center
Mon 02:47:33 PM 40.7364 -109.7475 96° East 530 610 39,000 581 Climbing Salt Lake Center
Mon 02:48:35 PM 40.7222 -109.5586 96° East 536 617 39,100 48 Climbing Salt Lake Center
Mon 02:49:37 PM 40.7056 -109.3408 96° East 535 616 39,100  Level Salt Lake Center
Mon 02:50:39 PM 40.6903 -109.1631 96° East 529 609 39,100  Level Salt Lake Center
Mon 02:51:41 PM 40.6719 -108.9492 96° East 531 611 39,100  Level Salt Lake Center
Mon 02:52:50 PM 40.6528 -108.7172 96° East 538 619 39,100  Level Denver Center
Mon 02:53:52 PM 40.6356 -108.5267 97° East 543 625 39,100  Level Denver Center
Mon 02:54:54 PM 40.6156 -108.3044 97° East 545 627 39,100  Level Denver Center
Mon 02:55:56 PM 40.5972 -108.1106 97° East 553 636 39,100  Level Denver Center
Mon 02:56:58 PM 40.5794 -107.9178 97° East 554 638 39,100  Level Denver Center
Mon 02:58:00 PM 40.5581 -107.6917 97° East 556 640 39,100  Level Denver Center
Mon 02:59:01 PM 40.5383 -107.4972 98° East 559 643 39,100 -98 Level Denver Center
Mon 03:00:03 PM 40.5175 -107.2708 97° East 558 642 38,900 -529 Descending Denver Center
Mon 03:01:17 PM 40.5072 -107.0611 94° East 558 642 37,900 -971 Descending Denver Center
Mon 03:02:19 PM 40.4939 -106.8142 94° East 560 644 36,700 -1,113 Descending Denver Center
Mon 03:03:21 PM 40.4819 -106.6114 94° East 556 640 35,600 -2,000 Descending Denver Center
Mon 03:04:22 PM 40.4694 -106.3997 94° East 549 632 32,600 -2,732 Descending Denver Center
Mon 03:05:24 PM 40.4583 -106.2075 94° East 550 633 30,000 -2,419 Descending Denver Center
Mon 03:06:26 PM 40.4450 -106.0153 95° East 540 621 27,600 -2,323 Descending Denver Center
Mon 03:07:28 PM 40.4200 -105.8297 100° East 521 600 25,200 -2,293 Descending Denver Center
Mon 03:08:29 PM 40.3864 -105.6214 102° East 490 564 22,900 -1,902 Descending Denver Center
Mon 03:09:31 PM 40.3603 -105.4603 102° East 458 527 21,300 -1,500 Descending Denver Center
Mon 03:10:33 PM 40.2944 -105.3400 126° Southeast 419 482 19,800 -1,645 Descending Denver Center
Mon 03:11:35 PM 40.2197 -105.2214 130° Southeast 396 456 17,900 -1,561 Descending Denver Center
Mon 03:12:36 PM 40.1517 -105.1147 130° Southeast 380 437 16,600 -1,366 Descending Denver Center
Mon 03:13:38 PM 40.1011 -105.0025 120° Southeast 359 413 15,100 -1,597 Descending Denver Center
Mon 03:14:40 PM 40.0508 -104.8803 118° Southeast 353 406 13,300 -1,016 Descending Denver Center
Mon 03:15:42 PM 40.0056 -104.7689 118° Southeast 347 399 13,000 -484 Descending Denver Center
Mon 03:16:44 PM 39.9739 -104.6642 112° Southeast 316 364 12,300 -823 Descending Denver Center
Mon 03:17:46 PM 39.9706 -104.5514 92° East 288 331 11,300 -878 Descending Denver Center
Mon 03:18:47 PM 39.9678 -104.4614 92° East 243 280 10,500 -1,488 Descending Denver Center
Mon 03:19:47 PM 39.9167 -104.4500 170° South 202 232 8,300 -1,714 Descending Denver TRACON
Mon 03:20:53 PM 39.8833 -104.5000 229° Southwest 185 213 6,900 -1,048 Descending Denver TRACON
Mon 03:21:53 PM 39.8833 -104.5667 270° West 145 167 6,100 -762 Descending Denver TRACON
Mon 03:22:59 PM 39.8833 -104.6167 270° West 142 163 5,300 -339 Descending Denver TRACON
Mon 03:23:57 PM 39.8772 -104.6478 256° West 125 144 5,400 103 Climbing Denver Center
Mon 03:25:00 PM 39.8617 -104.6732 186° South  Level Estimated
Mon 03:32:00 PM 39.8617 -104.6732 North  Level Estimated
Mon 03:33:00 PM 39.8617 -104.6732 North  Level Estimated
Mon 03:34:00 PM 39.8617 -104.6732 North  Level Estimated

Login

Don't have an account? Register now (free) for customized features, flight alerts, and more!